Latest Weather Observations for Oodnadatta

IDS60801

Issued at 1:41 pm CDT Saturday 17 November 2018 (issued every 10 minutes, with the page automatically refreshed every 10 minutes)

About weather observations | Map of weather stations | Latest weather observations for SA | Other Formats
Station Details ID: 017043 Name: OODNADATTA AIRPORT Lat: -27.56 Lon: 135.45 Height: 116.5 m
Data from the previous 72 hours. | See also: Recent months at Oodnadatta
Date/Time
CDT
Temp
°C
App
Temp
°C
Dew
Point
°C
Rel
Hum
%
Delta-T
°C
Wind Press
QNH
hPa
Press
MSL
hPa
Rain since
9am
mm
Dir  Spd
km/h
Gust
km/h
Spd
kts
Gust
kts
17/01:30pm 32.6 26.8 -4.3 9 16.8 SSE 17 30 9 16 1016.1 1015.5 0.0
17/01:00pm 31.8 25.6 -3.5 10 16.2 SSE 20 32 11 17 1016.6 1016.0 0.0
17/12:30pm 32.2 26.5 -0.8 12 15.8 ESE 19 30 10 16 1016.9 1016.3 0.0
17/12:00pm 31.0 25.3 -0.6 13 15.1 E 19 28 10 15 1017.5 1016.9 0.0
17/11:30am 30.4 23.8 -0.1 14 14.6 ESE 24 32 13 17 1017.7 1017.1 0.0
17/11:00am 29.1 23.0 0.7 16 13.7 ESE 22 32 12 17 1017.9 1017.3 0.0
17/10:30am 27.8 21.0 0.5 17 13.0 ESE 26 33 14 18 1018.1 1017.5 0.0
17/10:00am 27.5 20.7 1.1 18 12.7 ESE 26 37 14 20 1018.2 1017.6 0.0
17/09:30am 25.7 18.3 1.8 21 11.5 ESE 30 37 16 20 1018.2 1017.6 0.0
17/09:00am 24.7 17.8 2.8 24 10.6 SE 28 37 15 20 1018.4 1017.8 0.0
17/08:30am 23.3 16.4 2.7 26 9.9 SE 28 33 15 18 1018.1 1017.5 0.0
17/08:00am 22.2 15.6 2.3 27 9.4 SE 26 33 14 18 1017.7 1017.1 0.0
17/07:30am 21.3 16.4 2.1 28 9.0 SE 17 22 9 12 1017.7 1017.1 0.0
17/07:00am 20.3 16.0 0.7 27 8.9 SE 13 17 7 9 1017.4 1016.8 0.0
17/06:30am 20.0 15.2 0.5 27 8.7 ESE 15 20 8 11 1016.9 1016.3 0.0
17/06:00am 20.5 15.2 -0.7 24 9.3 SE 17 22 9 12 1016.5 1015.9 0.0
17/05:30am 21.0 14.2 -1.5 22 9.8 SE 24 30 13 16 1016.1 1015.5 0.0
17/05:00am 21.5 13.9 -2.4 20 10.3 SE 28 35 15 19 1015.8 1015.2 0.0
17/04:30am 22.1 14.8 -2.6 19 10.6 SE 26 30 14 16 1015.8 1015.2 0.0
17/04:00am 22.7 15.4 -2.8 18 11.0 SE 26 33 14 18 1015.5 1014.9 0.0
17/03:30am 21.2 15.8 -1.3 22 9.8 SE 17 19 9 10 1015.5 1014.9 0.0
17/03:00am 20.4 16.4 0.8 27 8.9 S 11 17 6 9 1015.5 1014.9 0.0
17/02:30am 20.9 16.9 0.7 26 9.2 S 11 13 6 7 1015.6 1015.0 0.0
17/02:00am 21.8 17.6 1.5 26 9.4 SSW 13 17 7 9 1015.7 1015.1 0.0
17/01:30am 21.3 18.3 2.1 28 9.0 SSE 7 9 4 5 1016.1 1015.5 0.0
17/01:00am 22.0 20.4 2.7 28 9.2 CALM 0 0 0 0 1016.2 1015.6 0.0
17/12:30am 23.7 21.8 0.7 22 10.7 CALM 0 0 0 0 1016.4 1015.8 0.0
17/12:00am 23.6 21.9 1.9 24 10.3 CALM 0 0 0 0 1016.9 1016.3 0.0
 
Date/Time
CDT
Temp
°C
App
Temp
°C
Dew
Point
°C
Rel
Hum
%
Delta-T
°C
Wind Press
QNH
hPa
Press
MSL
hPa
Rain since
9am
mm
Dir  Spd
km/h
Gust
km/h
Spd
kts
Gust
kts
16/11:30pm 24.1 21.1 1.1 22 10.8 ESE 6 9 3 5 1016.8 1016.2 0.0
16/11:00pm 25.8 22.8 0.5 19 11.9 SSE 6 7 3 4 1016.8 1016.2 0.0
16/10:30pm 26.1 24.0 1.4 20 11.8 S 2 6 1 3 1016.9 1016.3 0.0
16/10:00pm 26.5 22.5 0.3 18 12.3 SSE 11 13 6 7 1016.6 1016.0 0.0
16/09:30pm 27.3 22.9 0.1 17 12.8 SE 13 13 7 7 1016.3 1015.7 0.0
16/09:00pm 28.4 23.8 -0.7 15 13.6 SE 13 15 7 8 1016.1 1015.5 0.0
16/08:30pm 29.6 25.0 -0.7 14 14.3 SE 13 15 7 8 1016.2 1015.6 0.0
16/08:00pm 30.4 25.0 -1.1 13 14.9 SE 17 19 9 10 1015.8 1015.2 0.0
16/07:30pm 31.3 25.3 -1.5 12 15.5 SSE 20 24 11 13 1015.6 1015.0 0.0
16/07:00pm 32.0 25.9 -2.1 11 16.0 SSE 20 26 11 14 1015.2 1014.6 0.0
16/06:30pm 32.3 26.8 -1.9 11 16.1 S 17 22 9 12 1015.2 1014.6 0.0
16/06:00pm 32.7 27.3 -1.6 11 16.3 S 17 22 9 12 1015.4 1014.8 0.0
16/05:30pm 33.1 27.7 -1.3 11 16.5 SSW 17 20 9 11 1015.4 1014.8 0.0
16/05:00pm 32.9 27.4 0.9 13 15.9 SSE 19 28 10 15 1015.4 1014.8 0.0
16/04:30pm 32.2 27.2 1.3 14 15.4 SSE 17 28 9 15 1015.3 1014.7 0.0
16/04:00pm 32.0 26.2 0.2 13 15.5 SSW 20 28 11 15 1015.4 1014.8 0.0
16/03:30pm 32.6 27.5 0.6 13 15.8 S 17 26 9 14 1015.7 1015.1 0.0
16/03:00pm 32.9 27.4 0.9 13 15.9 S 19 32 10 17 1015.7 1015.1 0.0
16/02:30pm 32.0 26.7 2.1 15 15.1 SE 19 26 10 14 1016.2 1015.6 0.0
16/02:00pm 32.2 26.8 2.3 15 15.1 ESE 20 32 11 17 1016.3 1015.7 0.0
16/01:30pm 31.5 26.0 1.8 15 14.8 SE 20 30 11 16 1017.1 1016.5 0.0
16/01:00pm 31.1 25.7 2.3 16 14.5 SE 20 28 11 15 1017.7 1017.1 0.0
16/12:30pm 31.2 26.1 3.3 17 14.3 SE 19 30 10 16 1018.0 1017.4 0.0
16/12:00pm 30.4 24.9 4.2 19 13.5 ESE 22 32 12 17 1018.2 1017.6 0.0
16/11:30am 29.9 25.0 5.2 21 12.9 ESE 20 32 11 17 1018.5 1017.9 0.0
16/11:00am 29.7 24.2 5.7 22 12.7 ESE 24 33 13 18 1018.5 1017.9 0.0
16/10:30am 29.2 23.6 7.2 25 11.9 ESE 26 33 14 18 1018.7 1018.1 0.0
16/10:00am 28.0 22.2 6.2 25 11.5 ESE 26 33 14 18 1018.9 1018.3 0.0
16/09:30am 26.0 19.3 3.9 24 11.0 ESE 28 32 15 17 1018.8 1018.2 0.0
16/09:00am 25.7 20.0 3.0 23 11.1 ESE 22 30 12 16 1018.7 1018.1 0.0
16/08:30am 23.9 18.4 2.1 24 10.4 ESE 20 28 11 15 1018.5 1017.9 0.0
16/08:00am 23.3 17.9 2.2 25 10.0 ESE 20 30 11 16 1018.0 1017.4 0.0
16/07:30am 22.6 18.4 1.6 25 9.8 SE 13 19 7 10 1018.1 1017.5 0.0
16/07:00am 21.4 16.7 1.1 26 9.3 SE 15 17 8 9 1017.7 1017.1 0.0
16/06:30am 21.1 16.1 1.4 27 9.1 SSE 17 17 9 9 1017.3 1016.7 0.0
16/06:00am 20.8 17.4 2.1 29 8.7 SSE 9 13 5 7 1017.0 1016.4 0.0
16/05:30am 20.6 16.9 2.4 30 8.5 S 11 13 6 7 1016.6 1016.0 0.0
16/05:00am 20.7 17.0 2.5 30 8.5 SSE 11 15 6 8 1016.2 1015.6 0.0
16/04:30am 22.3 17.8 2.4 27 9.4 SE 15 17 8 9 1016.2 1015.6 0.0
16/04:00am 22.5 17.6 2.1 26 9.6 SE 17 19 9 10 1016.0 1015.4 0.0
16/03:30am 22.7 18.7 2.8 27 9.5 SE 13 17 7 9 1016.2 1015.6 0.0
16/03:00am 22.0 18.0 2.7 28 9.2 SE 13 15 7 8 1016.4 1015.8 0.0
16/02:30am 21.8 18.1 2.5 28 9.1 SE 11 13 6 7 1016.5 1015.9 0.0
16/02:00am 21.9 18.2 2.1 27 9.3 SE 11 13 6 7 1016.8 1016.2 0.0
16/01:30am 22.5 18.0 2.1 26 9.6 SE 15 15 8 8 1017.1 1016.5 0.0
16/01:00am 23.2 18.7 2.1 25 10.0 SE 15 15 8 8 1017.5 1016.9 0.0
16/12:30am 23.2 19.0 1.5 24 10.2 ESE 13 15 7 8 1017.5 1016.9 0.0
16/12:00am 24.3 20.0 1.2 22 10.8 SE 13 15 7 8 1017.6 1017.0 0.0
 
Date/Time
CDT
Temp
°C
App
Temp
°C
Dew
Point
°C
Rel
Hum
%
Delta-T
°C
Wind Press
QNH
hPa
Press
MSL
hPa
Rain since
9am
mm
Dir  Spd
km/h
Gust
km/h
Spd
kts
Gust
kts
15/11:30pm 25.7 21.1 1.8 21 11.5 SE 15 17 8 9 1017.7 1017.1 0.0
15/11:00pm 26.4 21.7 0.9 19 12.1 SE 15 17 8 9 1017.8 1017.2 0.0
15/10:30pm 27.2 22.5 0.8 18 12.6 SE 15 17 8 9 1017.7 1017.1 0.0
15/10:00pm 28.0 22.9 0.7 17 13.1 SSE 17 17 9 9 1017.4 1016.8 0.0
15/09:30pm 29.2 24.5 0.8 16 13.7 SSE 15 17 8 9 1017.2 1016.6 0.0
15/09:00pm 30.2 25.0 -0.2 14 14.5 SSE 17 19 9 10 1017.0 1016.4 0.0
15/08:30pm 31.1 25.8 -0.5 13 15.1 SSE 17 22 9 12 1016.6 1016.0 0.0
15/08:00pm 32.0 25.9 0.2 13 15.5 SSE 22 30 12 16 1016.4 1015.8 0.0
15/07:30pm 32.9 26.3 -0.2 12 16.1 SSE 24 33 13 18 1015.9 1015.3 0.0
15/07:00pm 33.2 26.3 0.0 12 16.3 SSE 26 37 14 20 1015.8 1015.2 0.0
15/06:30pm 33.9 28.2 2.7 14 16.1 SSW 22 32 12 17 1015.7 1015.1 0.0
15/06:00pm 34.4 29.5 4.0 15 16.0 S 19 41 10 22 1015.7 1015.1 0.0
15/05:30pm 34.0 29.4 3.7 15 15.9 S 17 32 9 17 1015.7 1015.1 0.0
15/05:00pm 34.0 28.6 4.6 16 15.6 SSW 22 32 12 17 1015.8 1015.2 0.0
15/04:30pm 34.1 29.7 4.7 16 15.6 S 17 30 9 16 1015.8 1015.2 0.0
15/04:00pm 34.5 29.6 5.0 16 15.8 SSW 20 32 11 17 1016.2 1015.6 0.0
15/03:30pm 33.4 28.5 5.0 17 15.1 S 20 32 11 17 1016.6 1016.0 0.0
15/03:00pm 33.7 28.8 5.3 17 15.2 SSW 20 32 11 17 1016.8 1016.2 0.0
15/02:30pm 32.9 28.8 6.2 19 14.4 S 17 28 9 15 1017.3 1016.7 0.0
15/02:00pm 33.4 28.1 6.6 19 14.7 S 24 37 13 20 1017.7 1017.1 0.0
15/01:30pm 32.3 27.3 6.5 20 14.0 SSE 22 33 12 18 1018.0 1017.4 0.0
15/01:00pm 31.3 26.5 5.7 20 13.6 S 20 30 11 16 1018.6 1018.0 0.0
15/12:30pm 30.9 26.3 6.7 22 13.1 SSE 20 32 11 17 1019.1 1018.5 0.0
15/12:00pm 31.0 26.1 6.8 22 13.1 SE 22 32 12 17 1019.6 1018.9 0.0
15/11:30am 30.2 25.0 7.4 24 12.4 SSE 24 39 13 21 1019.6 1018.9 0.0
15/11:00am 28.6 23.2 7.8 27 11.3 SSE 26 35 14 19 1019.9 1019.2 0.0
15/10:30am 28.0 22.2 7.8 28 10.9 SSE 28 37 15 20 1020.0 1019.3 0.0
15/10:00am 25.7 20.6 7.8 32 9.6 SSE 24 32 13 17 1020.3 1019.7 0.0
15/09:30am 25.0 20.4 8.1 34 9.0 SSE 22 32 12 17 1020.4 1019.8 0.0
15/09:00am 23.5 18.8 7.6 36 8.4 SE 22 32 12 17 1020.2 1019.6 0.0
15/08:30am 23.1 18.8 8.0 38 8.0 SSE 20 24 11 13 1020.0 1019.3 0.0
15/08:00am 21.9 17.6 7.7 40 7.4 SSE 20 26 11 14 1019.5 1018.8 0.0
15/07:30am 21.0 16.3 7.6 42 6.9 S 22 26 12 14 1019.1 1018.5 0.0
15/07:00am 20.3 15.9 7.3 43 6.7 S 20 24 11 13 1018.7 1018.1 0.0
15/06:30am 20.2 15.4 7.2 43 6.6 S 22 28 12 15 1018.3 1017.7 0.0
15/06:00am 20.8 15.9 7.1 41 7.0 S 22 28 12 15 1017.9 1017.3 0.0
15/05:30am 21.3 16.4 6.8 39 7.4 S 22 30 12 16 1017.7 1017.1 0.0
15/05:00am 21.8 16.4 6.5 37 7.8 S 24 30 13 16 1017.5 1016.9 0.0
15/04:30am 22.3 16.6 6.5 36 8.1 S 26 32 14 17 1017.2 1016.6 0.0
15/04:00am 22.7 17.3 6.5 35 8.3 S 24 28 13 15 1017.0 1016.4 0.0
15/03:30am 23.2 18.5 6.1 33 8.7 S 20 24 11 13 1017.0 1016.4 0.0
15/03:00am 23.8 19.3 6.1 32 9.1 SSE 19 22 10 12 1016.9 1016.3 0.0
15/02:30am 24.2 19.1 6.0 31 9.3 SSE 22 28 12 15 1016.8 1016.2 0.0
15/02:00am 24.7 19.2 6.0 30 9.6 SSE 24 32 13 17 1016.7 1016.1 0.0
15/01:30am 25.1 19.1 5.3 28 10.1 SSE 26 32 14 17 1016.6 1016.0 0.0
15/01:00am 25.7 19.2 4.8 26 10.6 SSE 28 37 15 20 1016.6 1016.0 0.0
15/12:30am 26.4 19.2 4.8 25 11.0 SSE 32 41 17 22 1016.5 1015.9 0.0
15/12:00am 27.0 19.7 4.7 24 11.4 SSE 32 41 17 22 1016.5 1015.9 0.0
 
Date/Time
CDT
Temp
°C
App
Temp
°C
Dew
Point
°C
Rel
Hum
%
Delta-T
°C
Wind Press
QNH
hPa
Press
MSL
hPa
Rain since
9am
mm
Dir  Spd
km/h
Gust
km/h
Spd
kts
Gust
kts
14/11:30pm 27.7 21.3 5.3 24 11.6 S 28 35 15 19 1016.4 1015.8 0.0
14/11:00pm 28.1 22.4 6.8 26 11.4 SSE 26 32 14 17 1016.4 1015.8 0.0
14/10:30pm 28.6 23.2 7.8 27 11.3 S 26 32 14 17 1016.1 1015.5 0.0
14/10:00pm 29.2 23.6 8.8 28 11.3 S 28 35 15 19 1015.6 1015.0 0.0
14/09:30pm 29.8 24.2 8.8 27 11.7 S 28 33 15 18 1015.1 1014.5 0.0
14/09:00pm 30.3 24.8 9.2 27 11.8 S 28 37 15 20 1014.9 1014.3 0.0
14/08:30pm 30.9 24.7 9.2 26 12.2 S 32 41 17 22 1014.5 1013.9 0.0
14/08:00pm 31.6 25.7 10.3 27 12.2 S 32 43 17 23 1014.2 1013.6 0.0
14/07:30pm 32.4 26.9 10.4 26 12.7 S 30 35 16 19 1013.7 1013.1 0.0
14/07:00pm 32.9 27.9 10.9 26 12.8 S 28 33 15 18 1013.5 1012.9 0.0
14/06:30pm 33.5 28.2 11.4 26 13.0 SSE 30 41 16 22 1013.3 1012.7 0.0
14/06:00pm 33.9 29.5 11.7 26 13.2 SSE 26 35 14 19 1013.2 1012.6 0.0
14/05:30pm 33.8 29.4 11.6 26 13.1 S 26 39 14 21 1013.2 1012.6 0.0
14/05:00pm 33.8 28.8 11.0 25 13.4 S 28 43 15 23 1013.3 1012.7 0.0
14/04:30pm 34.3 30.4 12.0 25 13.3 SSW 24 39 13 21 1013.3 1012.7 0.0
14/04:00pm 34.2 30.4 12.5 27 13.0 SSE 24 35 13 19 1013.4 1012.8 0.0
14/03:30pm 34.3 30.7 13.2 28 12.8 S 24 33 13 18 1013.7 1013.1 0.0
14/03:00pm 32.8 28.6 12.4 29 12.2 SSE 26 44 14 24 1014.0 1013.4 0.0
14/02:30pm 33.1 28.6 12.7 29 12.2 SSE 28 43 15 23 1014.1 1013.5 0.0
14/02:00pm 32.2 27.0 12.9 31 11.6 S 32 43 17 23 1014.6 1014.0 0.0

Other Formats:

Comma delimited format used in spreadsheet applications
http://www.bom.gov.au/fwo/IDS60801/IDS60801.94476.axf

JavaScript Object Notation format (JSON) in row-major order
http://www.bom.gov.au/fwo/IDS60801/IDS60801.94476.json